| time (UTC) | temp C | wind direction | speed KPH | gust KPH | rain 1hr cm | rain 24hr cm | rain mn cm | humidity % | barometer mb |
| 20260906163104 | 36 | 66 | 4.8 | 16.1 | 0.00 | 0.00 | 0.00 | 46 | 1017.2 |
| 20260906161604 | 36 | 108 | 0.0 | 8.0 | 0.00 | 0.00 | 0.00 | 47 | 1017.3 |
| 20260906160104 | 35 | 133 | 3.2 | 12.9 | 0.00 | 0.00 | 0.00 | 49 | 1017.2 |
| 20260906154606 | 35 | 116 | 3.2 | 11.3 | 0.00 | 0.00 | 0.00 | 51 | 1017.1 |
| 20260906153106 | 34 | 121 | 1.6 | 8.0 | 0.00 | 0.00 | 0.00 | 52 | 1017.0 |
| 20260906151606 | 33 | 54 | 1.6 | 11.3 | 0.00 | 0.00 | 0.00 | 53 | 1016.8 |
| 20260906150107 | 33 | 100 | 4.8 | 14.5 | 0.00 | 0.00 | 0.00 | 55 | 1016.9 |
| 20260906144605 | 32 | 106 | 4.8 | 11.3 | 0.00 | 0.00 | 0.00 | 58 | 1016.8 |
| 20260906143112 | 31 | 122 | 3.2 | 8.0 | 0.00 | 0.00 | 0.00 | 61 | 1016.8 |
| 20260906141603 | 31 | 0 | 1.6 | 6.4 | 0.00 | 0.00 | 0.00 | 63 | 1016.9 |
| 20260906140101 | 30 | 10 | 1.6 | 6.4 | 0.00 | 0.00 | 0.00 | 63 | 1016.7 |
| 20260906134605 | 28 | 101 | 0.0 | 4.8 | 0.00 | 0.00 | 0.00 | 67 | 1016.7 |
| 20260906133112 | 27 | 111 | 0.0 | 1.6 | 0.00 | 0.00 | 0.00 | 70 | 1016.6 |
| 20260906131605 | 26 | 118 | 0.0 | 3.2 | 0.00 | 0.00 | 0.00 | 74 | 1016.6 |
| 20260906130104 | 25 | 0 | 0.0 | 0.0 | 0.00 | 0.00 | 0.00 | 77 | 1016.6 |
| 20260906124601 | 23 | 0 | 0.0 | 0.0 | 0.00 | 0.00 | 0.00 | 78 | 1016.4 |
| 20260906123114 | 23 | 0 | 0.0 | 1.6 | 0.00 | 0.00 | 0.00 | 79 | 1016.5 |
| 20260906121607 | 22 | 22 | 1.6 | 4.8 | 0.00 | 0.00 | 0.00 | 80 | 1016.2 |
| 20260906120140 | 21 | 0 | 0.0 | 0.0 | 0.00 | 0.00 | 0.00 | 82 | 1016.1 |
| 20260906114627 | 21 | 0 | 0.0 | 0.0 | 0.00 | 0.00 | 0.00 | 82 | 1015.7 |
| 20260906113103 | 21 | 0 | 0.0 | 3.2 | 0.00 | 0.00 | 0.00 | 81 | 1015.7 |
| 20260906111616 | 21 | 0 | 0.0 | 0.0 | 0.00 | 0.00 | 0.00 | 82 | 1015.6 |
| 20260906110100 | 21 | 0 | 0.0 | 0.0 | 0.00 | 0.00 | 0.00 | 81 | 1015.5 |
| 20260906104603 | 22 | 0 | 0.0 | 0.0 | 0.00 | 0.00 | 0.00 | 80 | 1015.5 |
| 20260906103104 | 22 | 0 | 0.0 | 0.0 | 0.00 | 0.00 | 0.00 | 80 | 1015.4 |
| 20260906101606 | 22 | 0 | 0.0 | 0.0 | 0.00 | 0.00 | 0.00 | 79 | 1015.4 |
| 20260906100104 | 22 | 0 | 0.0 | 0.0 | 0.00 | 0.00 | 0.00 | 79 | 1015.3 |
| 20260906094604 | 22 | 0 | 0.0 | 0.0 | 0.00 | 0.00 | 0.00 | 79 | 1015.2 |
| 20260906093100 | 22 | 0 | 0.0 | 0.0 | 0.00 | 0.00 | 0.00 | 79 | 1015.0 |
| 20260906091601 | 22 | 0 | 0.0 | 0.0 | 0.00 | 0.00 | 0.00 | 78 | 1014.9 |
| 20260906090105 | 22 | 0 | 0.0 | 0.0 | 0.00 | 0.00 | 0.00 | 78 | 1014.7 |
| 20260906084603 | 22 | 0 | 0.0 | 1.6 | 0.00 | 0.00 | 0.00 | 76 | 1014.8 |
| 20260906083103 | 24 | 0 | 0.0 | 0.0 | 0.00 | 0.00 | 0.00 | 72 | 1014.7 |
| 20260906081601 | 24 | 0 | 0.0 | 0.0 | 0.00 | 0.00 | 0.00 | 72 | 1014.7 |
| 20260906074605 | 25 | 0 | 0.0 | 0.0 | 0.00 | 0.00 | 0.00 | 70 | 1014.9 |
| 20260906073101 | 25 | 0 | 0.0 | 0.0 | 0.00 | 0.00 | 0.00 | 70 | 1015.1 |
| 20260906071602 | 25 | 0 | 0.0 | 1.6 | 0.00 | 0.00 | 0.00 | 71 | 1015.2 |
| 20260906070106 | 25 | 0 | 0.0 | 1.6 | 0.00 | 0.00 | 0.00 | 70 | 1015.3 |
| 20260906064600 | 26 | 0 | 0.0 | 3.2 | 0.00 | 0.00 | 0.00 | 68 | 1015.4 |
| 20260906063101 | 26 | 0 | 0.0 | 0.0 | 0.00 | 0.00 | 0.00 | 68 | 1015.5 |
| 20260906061601 | 26 | 0 | 0.0 | 0.0 | 0.00 | 0.00 | 0.00 | 68 | 1015.4 |
| 20260906060109 | 26 | 0 | 0.0 | 0.0 | 0.00 | 0.00 | 0.00 | 67 | 1015.5 |
| 20260906054641 | 26 | 0 | 0.0 | 0.0 | 0.00 | 0.00 | 0.00 | 66 | 1015.5 |
| 20260906053101 | 27 | 0 | 0.0 | 0.0 | 0.00 | 0.00 | 0.00 | 66 | 1015.4 |
| 20260906051602 | 27 | 11 | 1.6 | 4.8 | 0.00 | 0.00 | 0.00 | 65 | 1015.5 |
| 20260906050108 | 27 | 3 | 3.2 | 4.8 | 0.00 | 0.00 | 0.00 | 65 | 1015.3 |
| 20260906044603 | 27 | 0 | 0.0 | 0.0 | 0.00 | 0.00 | 0.00 | 64 | 1015.4 |
| 20260906043101 | 27 | 23 | 0.0 | 3.2 | 0.00 | 0.00 | 0.00 | 64 | 1015.5 |
| 20260906041604 | 27 | 0 | 0.0 | 0.0 | 0.00 | 0.00 | 0.00 | 65 | 1015.5 |
| 20260906040109 | 27 | 0 | 0.0 | 0.0 | 0.00 | 0.00 | 0.00 | 66 | 1015.5 |
| 20260906034601 | 26 | 0 | 0.0 | 0.0 | 0.00 | 0.00 | 0.00 | 67 | 1015.5 |
| 20260906033124 | 25 | 0 | 0.0 | 0.0 | 0.00 | 0.00 | 0.00 | 68 | 1015.4 |
| 20260906031615 | 26 | 0 | 0.0 | 0.0 | 0.00 | 0.00 | 0.00 | 67 | 1015.3 |
| 20260906030059 | 27 | 0 | 0.0 | 0.0 | 0.00 | 0.00 | 0.00 | 64 | 1015.2 |
| 20260906024606 | 27 | 0 | 0.0 | 0.0 | 0.00 | 0.00 | 0.00 | 64 | 1015.2 |
| 20260906023104 | 27 | 0 | 0.0 | 0.0 | 0.00 | 0.00 | 0.00 | 65 | 1015.0 |
| 20260906021615 | 27 | 0 | 0.0 | 0.0 | 0.00 | 0.00 | 0.00 | 64 | 1014.7 |
| 20260906014603 | 28 | 0 | 0.0 | 0.0 | 0.00 | 0.00 | 0.00 | 64 | 1014.4 |
| 20260906013107 | 28 | 0 | 0.0 | 0.0 | 0.00 | 0.00 | 0.00 | 63 | 1014.3 |
| 20260906011607 | 29 | 0 | 0.0 | 0.0 | 0.00 | 0.00 | 0.00 | 61 | 1014.3 |
| 20260906010104 | 30 | 0 | 0.0 | 3.2 | 0.00 | 0.00 | 0.00 | 58 | 1014.1 |
| 20260906004614 | 31 | 0 | 0.0 | 0.0 | 0.00 | 0.00 | 0.00 | 55 | 1014.1 |
| 20260906003102 | 32 | 0 | 0.0 | 0.0 | 0.00 | 0.00 | 0.00 | 50 | 1014.3 |
| 20260906001605 | 33 | 0 | 0.0 | 1.6 | 0.00 | 0.00 | 0.00 | 47 | 1014.2 |
| 20260906000108 | 33 | 29 | 3.2 | 11.3 | 0.00 | 0.00 | 0.00 | 46 | 1014.3 |
| 20260905234607 | 35 | 18 | 1.6 | 6.4 | 0.00 | 0.00 | 0.00 | 45 | 1014.2 |
| 20260905233059 | 34 | 106 | 8.0 | 12.9 | 0.00 | 0.00 | 0.00 | 45 | 1013.8 |
| 20260905231607 | 35 | 51 | 0.0 | 3.2 | 0.00 | 0.00 | 0.00 | 42 | 1013.6 |
| 20260905230103 | 37 | 0 | 0.0 | 9.7 | 0.00 | 0.00 | 0.00 | 38 | 1013.5 |
| 20260905224603 | 37 | 0 | 0.0 | 4.8 | 0.00 | 0.00 | 0.00 | 36 | 1013.5 |
| 20260905223104 | 37 | 0 | 1.6 | 4.8 | 0.00 | 0.00 | 0.00 | 37 | 1013.4 |
| 20260905221603 | 38 | 0 | 0.0 | 3.2 | 0.00 | 0.00 | 0.00 | 36 | 1013.5 |
| 20260905220105 | 37 | 173 | 0.0 | 8.0 | 0.00 | 0.00 | 0.00 | 38 | 1013.5 |
| 20260905214601 | 37 | 0 | 1.6 | 9.7 | 0.00 | 0.00 | 0.00 | 37 | 1013.7 |
| 20260905213108 | 37 | 18 | 1.6 | 6.4 | 0.00 | 0.00 | 0.00 | 39 | 1013.7 |
| 20260905211612 | 38 | 113 | 0.0 | 8.0 | 0.00 | 0.00 | 0.00 | 35 | 1014.1 |
| 20260905210107 | 38 | 122 | 3.2 | 9.7 | 0.00 | 0.00 | 0.00 | 36 | 1014.1 |
| 20260905204614 | 37 | 110 | 4.8 | 9.7 | 0.00 | 0.00 | 0.00 | 38 | 1014.4 |
| 20260905203122 | 37 | 161 | 3.2 | 9.7 | 0.00 | 0.00 | 0.00 | 40 | 1014.5 |
| 20260905201606 | 36 | 130 | 3.2 | 8.0 | 0.00 | 0.00 | 0.00 | 41 | 1014.6 |
| 20260905200119 | 37 | 13 | 0.0 | 9.7 | 0.00 | 0.00 | 0.00 | 40 | 1014.9 |
| 20260905194605 | 38 | 44 | 1.6 | 6.4 | 0.00 | 0.00 | 0.00 | 39 | 1015.0 |
| 20260905193105 | 38 | 220 | 4.8 | 9.7 | 0.00 | 0.00 | 0.00 | 37 | 1015.1 |
| 20260905191605 | 37 | 321 | 3.2 | 9.7 | 0.00 | 0.00 | 0.00 | 38 | 1015.4 |
| 20260905190108 | 36 | 288 | 0.0 | 1.6 | 0.00 | 0.00 | 0.00 | 44 | 1015.7 |
| 20260905184611 | 36 | 29 | 0.0 | 11.3 | 0.00 | 0.00 | 0.00 | 41 | 1016.0 |
| 20260905183106 | 38 | 50 | 1.6 | 8.0 | 0.00 | 0.00 | 0.00 | 40 | 1016.1 |
| 20260905181605 | 37 | 111 | 3.2 | 19.3 | 0.00 | 0.00 | 0.00 | 42 | 1016.3 |
| 20260905180107 | 36 | 0 | 0.0 | 12.9 | 0.00 | 0.00 | 0.00 | 43 | 1016.5 |
| 20260905174607 | 36 | 3 | 6.4 | 14.5 | 0.00 | 0.00 | 0.00 | 42 | 1016.8 |
| 20260905173106 | 36 | 53 | 1.6 | 12.9 | 0.00 | 0.00 | 0.00 | 44 | 1017.0 |
| 20260905171601 | 35 | 90 | 4.8 | 17.7 | 0.00 | 0.00 | 0.00 | 45 | 1017.1 |
| 20260905170126 | 36 | 38 | 3.2 | 12.9 | 0.00 | 0.00 | 0.00 | 48 | 1017.3 |
| 20260905164603 | 35 | 0 | 0.0 | 19.3 | 0.00 | 0.00 | 0.00 | 48 | 1017.4 |